sensor_id;sensor_type;location;lat;lon;timestamp;P1;durP1;ratioP1;P2;durP2;ratioP2
49784;SDS011;35679;38.732;-121.358;2023-06-22T00:00:24;1.80;;;1.70;;
49784;SDS011;35679;38.732;-121.358;2023-06-22T00:03:14;2.30;;;2.10;;
49784;SDS011;35679;38.732;-121.358;2023-06-22T00:06:03;2.10;;;2.00;;
49784;SDS011;35679;38.732;-121.358;2023-06-22T00:08:53;2.20;;;2.10;;
49784;SDS011;35679;38.732;-121.358;2023-06-22T00:11:42;2.25;;;2.15;;
49784;SDS011;35679;38.732;-121.358;2023-06-22T00:14:31;2.05;;;1.95;;
49784;SDS011;35679;38.732;-121.358;2023-06-22T00:17:21;2.20;;;2.10;;
49784;SDS011;35679;38.732;-121.358;2023-06-22T00:20:11;2.10;;;2.00;;
49784;SDS011;35679;38.732;-121.358;2023-06-22T00:23:00;3.40;;;2.20;;
49784;SDS011;35679;38.732;-121.358;2023-06-22T00:25:50;2.08;;;1.98;;
49784;SDS011;35679;38.732;-121.358;2023-06-22T00:28:40;2.00;;;1.90;;
49784;SDS011;35679;38.732;-121.358;2023-06-22T00:31:29;1.90;;;1.80;;
49784;SDS011;35679;38.732;-121.358;2023-06-22T00:34:19;2.10;;;1.90;;
49784;SDS011;35679;38.732;-121.358;2023-06-22T00:37:08;1.65;;;1.55;;
49784;SDS011;35679;38.732;-121.358;2023-06-22T00:39:59;1.50;;;1.40;;
49784;SDS011;35679;38.732;-121.358;2023-06-22T00:42:49;1.67;;;1.40;;
49784;SDS011;35679;38.732;-121.358;2023-06-22T00:45:38;1.52;;;1.42;;
49784;SDS011;35679;38.732;-121.358;2023-06-22T00:48:29;1.50;;;1.40;;
49784;SDS011;35679;38.732;-121.358;2023-06-22T00:51:19;1.48;;;1.38;;
49784;SDS011;35679;38.732;-121.358;2023-06-22T00:54:12;1.52;;;1.42;;
49784;SDS011;35679;38.732;-121.358;2023-06-22T00:57:02;1.50;;;1.40;;
49784;SDS011;35679;38.732;-121.358;2023-06-22T00:59:53;1.50;;;1.40;;
49784;SDS011;35679;38.732;-121.358;2023-06-22T01:02:42;1.38;;;1.38;;
49784;SDS011;35679;38.732;-121.358;2023-06-22T01:05:38;1.30;;;1.30;;
49784;SDS011;35679;38.732;-121.358;2023-06-22T01:08:35;1.63;;;1.50;;
49784;SDS011;35679;38.732;-121.358;2023-06-22T01:11:39;1.40;;;1.20;;
49784;SDS011;35679;38.732;-121.358;2023-06-22T01:17:42;1.58;;;1.48;;
49784;SDS011;35679;38.732;-121.358;2023-06-22T01:20:34;2.58;;;1.40;;
49784;SDS011;35679;38.732;-121.358;2023-06-22T01:23:28;1.40;;;1.40;;
49784;SDS011;35679;38.732;-121.358;2023-06-22T01:26:31;1.35;;;1.25;;
49784;SDS011;35679;38.732;-121.358;2023-06-22T01:29:29;1.55;;;1.23;;
49784;SDS011;35679;38.732;-121.358;2023-06-22T01:32:21;1.25;;;1.20;;
49784;SDS011;35679;38.732;-121.358;2023-06-22T01:35:11;3.08;;;1.40;;
49784;SDS011;35679;38.732;-121.358;2023-06-22T01:38:01;2.08;;;1.30;;
49784;SDS011;35679;38.732;-121.358;2023-06-22T01:40:51;1.33;;;1.23;;
49784;SDS011;35679;38.732;-121.358;2023-06-22T01:43:41;1.55;;;1.45;;
49784;SDS011;35679;38.732;-121.358;2023-06-22T01:46:31;1.58;;;1.48;;
49784;SDS011;35679;38.732;-121.358;2023-06-22T01:49:22;1.33;;;1.30;;
49784;SDS011;35679;38.732;-121.358;2023-06-22T01:52:12;1.63;;;1.27;;
49784;SDS011;35679;38.732;-121.358;2023-06-22T01:55:01;1.52;;;1.40;;
49784;SDS011;35679;38.732;-121.358;2023-06-22T01:57:52;1.40;;;1.30;;
49784;SDS011;35679;38.732;-121.358;2023-06-22T02:00:48;1.58;;;1.30;;
49784;SDS011;35679;38.732;-121.358;2023-06-22T02:03:55;1.30;;;1.13;;
49784;SDS011;35679;38.732;-121.358;2023-06-22T02:06:53;1.50;;;1.40;;
49784;SDS011;35679;38.732;-121.358;2023-06-22T02:09:47;1.73;;;1.63;;
49784;SDS011;35679;38.732;-121.358;2023-06-22T02:12:41;1.92;;;1.25;;
49784;SDS011;35679;38.732;-121.358;2023-06-22T02:15:33;2.40;;;1.55;;
49784;SDS011;35679;38.732;-121.358;2023-06-22T02:18:23;1.17;;;1.17;;
49784;SDS011;35679;38.732;-121.358;2023-06-22T02:21:13;2.97;;;1.40;;
49784;SDS011;35679;38.732;-121.358;2023-06-22T02:24:03;3.50;;;1.30;;
49784;SDS011;35679;38.732;-121.358;2023-06-22T02:26:53;1.90;;;1.40;;
49784;SDS011;35679;38.732;-121.358;2023-06-22T02:29:43;1.38;;;1.27;;
49784;SDS011;35679;38.732;-121.358;2023-06-22T02:32:32;1.30;;;1.20;;
49784;SDS011;35679;38.732;-121.358;2023-06-22T02:35:22;1.25;;;1.20;;
49784;SDS011;35679;38.732;-121.358;2023-06-22T02:38:12;3.28;;;1.42;;
49784;SDS011;35679;38.732;-121.358;2023-06-22T02:41:01;1.40;;;1.30;;
49784;SDS011;35679;38.732;-121.358;2023-06-22T02:43:51;1.48;;;1.38;;
49784;SDS011;35679;38.732;-121.358;2023-06-22T02:46:40;1.33;;;1.23;;
49784;SDS011;35679;38.732;-121.358;2023-06-22T02:49:30;1.35;;;1.30;;
49784;SDS011;35679;38.732;-121.358;2023-06-22T02:52:20;1.73;;;1.40;;
49784;SDS011;35679;38.732;-121.358;2023-06-22T02:55:09;1.40;;;1.40;;
49784;SDS011;35679;38.732;-121.358;2023-06-22T02:57:59;2.45;;;1.45;;
49784;SDS011;35679;38.732;-121.358;2023-06-22T03:00:50;1.95;;;1.85;;
49784;SDS011;35679;38.732;-121.358;2023-06-22T03:03:41;2.00;;;1.70;;
49784;SDS011;35679;38.732;-121.358;2023-06-22T03:06:31;1.77;;;1.67;;
49784;SDS011;35679;38.732;-121.358;2023-06-22T03:09:21;2.85;;;1.90;;
49784;SDS011;35679;38.732;-121.358;2023-06-22T03:12:10;2.60;;;2.50;;
49784;SDS011;35679;38.732;-121.358;2023-06-22T03:15:13;2.65;;;2.55;;
49784;SDS011;35679;38.732;-121.358;2023-06-22T03:20:53;2.88;;;2.78;;
49784;SDS011;35679;38.732;-121.358;2023-06-22T03:23:43;2.97;;;2.80;;
49784;SDS011;35679;38.732;-121.358;2023-06-22T03:26:33;3.10;;;3.00;;
49784;SDS011;35679;38.732;-121.358;2023-06-22T03:29:23;2.70;;;2.60;;
49784;SDS011;35679;38.732;-121.358;2023-06-22T03:32:17;2.90;;;2.80;;
49784;SDS011;35679;38.732;-121.358;2023-06-22T03:35:07;3.17;;;3.08;;
49784;SDS011;35679;38.732;-121.358;2023-06-22T03:37:57;3.08;;;2.97;;
49784;SDS011;35679;38.732;-121.358;2023-06-22T03:40:46;2.70;;;2.60;;
49784;SDS011;35679;38.732;-121.358;2023-06-22T03:43:35;2.90;;;2.70;;
49784;SDS011;35679;38.732;-121.358;2023-06-22T03:46:25;2.60;;;2.50;;
49784;SDS011;35679;38.732;-121.358;2023-06-22T03:49:15;3.00;;;2.80;;
49784;SDS011;35679;38.732;-121.358;2023-06-22T03:52:05;3.20;;;3.00;;
49784;SDS011;35679;38.732;-121.358;2023-06-22T03:54:54;3.10;;;2.90;;
49784;SDS011;35679;38.732;-121.358;2023-06-22T03:57:44;3.05;;;2.90;;
49784;SDS011;35679;38.732;-121.358;2023-06-22T04:00:37;3.20;;;3.10;;
49784;SDS011;35679;38.732;-121.358;2023-06-22T04:03:27;2.80;;;2.70;;
49784;SDS011;35679;38.732;-121.358;2023-06-22T04:06:16;2.83;;;2.63;;
49784;SDS011;35679;38.732;-121.358;2023-06-22T04:09:06;2.60;;;2.40;;
49784;SDS011;35679;38.732;-121.358;2023-06-22T04:11:56;2.70;;;2.60;;
49784;SDS011;35679;38.732;-121.358;2023-06-22T04:14:45;2.80;;;2.63;;
49784;SDS011;35679;38.732;-121.358;2023-06-22T04:17:34;2.72;;;2.53;;
49784;SDS011;35679;38.732;-121.358;2023-06-22T04:20:24;2.50;;;2.40;;
49784;SDS011;35679;38.732;-121.358;2023-06-22T04:23:16;2.80;;;2.53;;
49784;SDS011;35679;38.732;-121.358;2023-06-22T04:26:06;3.00;;;2.80;;
49784;SDS011;35679;38.732;-121.358;2023-06-22T04:28:55;3.42;;;3.13;;
49784;SDS011;35679;38.732;-121.358;2023-06-22T04:31:44;3.10;;;2.90;;
49784;SDS011;35679;38.732;-121.358;2023-06-22T04:34:40;3.38;;;3.17;;
49784;SDS011;35679;38.732;-121.358;2023-06-22T04:37:30;2.90;;;2.80;;
49784;SDS011;35679;38.732;-121.358;2023-06-22T04:40:22;4.25;;;2.65;;
49784;SDS011;35679;38.732;-121.358;2023-06-22T04:43:12;3.45;;;2.70;;
49784;SDS011;35679;38.732;-121.358;2023-06-22T04:46:02;2.67;;;2.50;;
49784;SDS011;35679;38.732;-121.358;2023-06-22T04:48:51;2.80;;;2.60;;
49784;SDS011;35679;38.732;-121.358;2023-06-22T04:51:42;2.83;;;2.72;;
49784;SDS011;35679;38.732;-121.358;2023-06-22T04:54:31;3.20;;;2.90;;
49784;SDS011;35679;38.732;-121.358;2023-06-22T04:57:21;3.00;;;2.80;;
49784;SDS011;35679;38.732;-121.358;2023-06-22T05:00:19;3.30;;;3.10;;
49784;SDS011;35679;38.732;-121.358;2023-06-22T05:03:11;3.40;;;3.20;;
49784;SDS011;35679;38.732;-121.358;2023-06-22T05:06:06;3.83;;;3.30;;
49784;SDS011;35679;38.732;-121.358;2023-06-22T05:08:56;4.03;;;3.20;;
49784;SDS011;35679;38.732;-121.358;2023-06-22T05:11:46;4.00;;;3.60;;
49784;SDS011;35679;38.732;-121.358;2023-06-22T05:14:36;2.75;;;2.55;;
49784;SDS011;35679;38.732;-121.358;2023-06-22T05:17:25;4.22;;;2.03;;
49784;SDS011;35679;38.732;-121.358;2023-06-22T05:20:15;2.00;;;1.80;;
49784;SDS011;35679;38.732;-121.358;2023-06-22T05:23:06;3.03;;;1.80;;
49784;SDS011;35679;38.732;-121.358;2023-06-22T05:25:55;2.10;;;1.70;;
49784;SDS011;35679;38.732;-121.358;2023-06-22T05:28:46;3.40;;;2.00;;
49784;SDS011;35679;38.732;-121.358;2023-06-22T05:31:36;2.08;;;1.80;;
49784;SDS011;35679;38.732;-121.358;2023-06-22T05:34:25;2.05;;;1.95;;
49784;SDS011;35679;38.732;-121.358;2023-06-22T05:37:15;2.40;;;1.73;;
49784;SDS011;35679;38.732;-121.358;2023-06-22T05:40:04;2.08;;;1.80;;
49784;SDS011;35679;38.732;-121.358;2023-06-22T05:42:55;3.78;;;2.03;;
49784;SDS011;35679;38.732;-121.358;2023-06-22T05:45:45;2.47;;;1.70;;
49784;SDS011;35679;38.732;-121.358;2023-06-22T05:48:34;3.85;;;2.00;;
49784;SDS011;35679;38.732;-121.358;2023-06-22T05:51:23;2.08;;;1.70;;
49784;SDS011;35679;38.732;-121.358;2023-06-22T05:54:13;2.60;;;1.80;;
49784;SDS011;35679;38.732;-121.358;2023-06-22T05:57:04;2.33;;;1.70;;
49784;SDS011;35679;38.732;-121.358;2023-06-22T05:59:53;2.13;;;1.70;;
49784;SDS011;35679;38.732;-121.358;2023-06-22T06:02:43;2.95;;;2.25;;
49784;SDS011;35679;38.732;-121.358;2023-06-22T06:05:33;2.95;;;2.05;;
49784;SDS011;35679;38.732;-121.358;2023-06-22T06:08:23;3.35;;;2.13;;
49784;SDS011;35679;38.732;-121.358;2023-06-22T06:11:12;2.83;;;2.10;;
49784;SDS011;35679;38.732;-121.358;2023-06-22T06:14:02;3.50;;;2.15;;
49784;SDS011;35679;38.732;-121.358;2023-06-22T06:16:51;4.47;;;2.35;;
49784;SDS011;35679;38.732;-121.358;2023-06-22T06:19:40;3.60;;;2.38;;
49784;SDS011;35679;38.732;-121.358;2023-06-22T06:22:30;3.58;;;1.95;;
49784;SDS011;35679;38.732;-121.358;2023-06-22T06:25:19;2.38;;;2.10;;
49784;SDS011;35679;38.732;-121.358;2023-06-22T06:28:10;2.63;;;2.20;;
49784;SDS011;35679;38.732;-121.358;2023-06-22T06:30:59;2.80;;;2.00;;
49784;SDS011;35679;38.732;-121.358;2023-06-22T06:33:49;2.67;;;1.98;;
49784;SDS011;35679;38.732;-121.358;2023-06-22T06:36:38;3.17;;;2.20;;
49784;SDS011;35679;38.732;-121.358;2023-06-22T06:39:28;3.58;;;2.42;;
49784;SDS011;35679;38.732;-121.358;2023-06-22T06:42:17;2.03;;;1.92;;
49784;SDS011;35679;38.732;-121.358;2023-06-22T06:45:08;2.30;;;2.10;;
49784;SDS011;35679;38.732;-121.358;2023-06-22T06:47:58;4.03;;;2.60;;
49784;SDS011;35679;38.732;-121.358;2023-06-22T06:50:47;2.78;;;2.58;;
49784;SDS011;35679;38.732;-121.358;2023-06-22T06:53:39;4.95;;;2.40;;
49784;SDS011;35679;38.732;-121.358;2023-06-22T06:56:29;2.95;;;2.20;;
49784;SDS011;35679;38.732;-121.358;2023-06-22T06:59:19;2.38;;;2.17;;
49784;SDS011;35679;38.732;-121.358;2023-06-22T07:02:08;5.03;;;2.30;;
49784;SDS011;35679;38.732;-121.358;2023-06-22T07:04:57;3.58;;;2.00;;
49784;SDS011;35679;38.732;-121.358;2023-06-22T07:07:47;2.20;;;1.98;;
49784;SDS011;35679;38.732;-121.358;2023-06-22T07:10:37;3.53;;;2.10;;
49784;SDS011;35679;38.732;-121.358;2023-06-22T07:13:27;5.57;;;2.30;;
49784;SDS011;35679;38.732;-121.358;2023-06-22T07:16:16;2.45;;;2.03;;
49784;SDS011;35679;38.732;-121.358;2023-06-22T07:19:07;2.60;;;2.25;;
49784;SDS011;35679;38.732;-121.358;2023-06-22T07:21:57;3.05;;;2.30;;
49784;SDS011;35679;38.732;-121.358;2023-06-22T07:24:46;2.30;;;2.10;;
49784;SDS011;35679;38.732;-121.358;2023-06-22T07:27:39;2.65;;;2.15;;
49784;SDS011;35679;38.732;-121.358;2023-06-22T07:30:33;2.88;;;2.05;;
49784;SDS011;35679;38.732;-121.358;2023-06-22T07:33:23;3.40;;;2.50;;
49784;SDS011;35679;38.732;-121.358;2023-06-22T07:36:12;3.33;;;2.40;;
49784;SDS011;35679;38.732;-121.358;2023-06-22T07:39:02;2.40;;;2.08;;
49784;SDS011;35679;38.732;-121.358;2023-06-22T07:41:52;4.15;;;2.50;;
49784;SDS011;35679;38.732;-121.358;2023-06-22T07:44:42;3.88;;;2.10;;
49784;SDS011;35679;38.732;-121.358;2023-06-22T07:47:31;3.72;;;2.60;;
49784;SDS011;35679;38.732;-121.358;2023-06-22T07:53:13;2.38;;;2.17;;
49784;SDS011;35679;38.732;-121.358;2023-06-22T07:56:02;3.40;;;2.20;;
49784;SDS011;35679;38.732;-121.358;2023-06-22T07:58:55;3.00;;;2.33;;
49784;SDS011;35679;38.732;-121.358;2023-06-22T08:01:46;2.90;;;2.20;;
49784;SDS011;35679;38.732;-121.358;2023-06-22T08:04:37;2.20;;;2.00;;
49784;SDS011;35679;38.732;-121.358;2023-06-22T08:07:28;3.30;;;2.30;;
49784;SDS011;35679;38.732;-121.358;2023-06-22T08:10:18;3.22;;;2.10;;
49784;SDS011;35679;38.732;-121.358;2023-06-22T08:13:08;3.83;;;2.20;;
49784;SDS011;35679;38.732;-121.358;2023-06-22T08:15:59;3.67;;;2.30;;
49784;SDS011;35679;38.732;-121.358;2023-06-22T08:18:48;3.17;;;2.28;;
49784;SDS011;35679;38.732;-121.358;2023-06-22T08:21:38;2.58;;;2.38;;
49784;SDS011;35679;38.732;-121.358;2023-06-22T08:24:27;2.22;;;2.00;;
49784;SDS011;35679;38.732;-121.358;2023-06-22T08:27:19;4.68;;;2.20;;
49784;SDS011;35679;38.732;-121.358;2023-06-22T08:30:10;3.13;;;2.30;;
49784;SDS011;35679;38.732;-121.358;2023-06-22T08:32:59;3.63;;;2.30;;
49784;SDS011;35679;38.732;-121.358;2023-06-22T08:35:48;3.70;;;2.13;;
49784;SDS011;35679;38.732;-121.358;2023-06-22T08:38:38;2.15;;;2.05;;
49784;SDS011;35679;38.732;-121.358;2023-06-22T08:41:28;3.33;;;2.08;;
49784;SDS011;35679;38.732;-121.358;2023-06-22T08:44:18;2.75;;;2.17;;
49784;SDS011;35679;38.732;-121.358;2023-06-22T08:47:08;3.97;;;2.25;;
49784;SDS011;35679;38.732;-121.358;2023-06-22T08:49:57;2.65;;;2.03;;
49784;SDS011;35679;38.732;-121.358;2023-06-22T08:52:47;3.70;;;2.33;;
49784;SDS011;35679;38.732;-121.358;2023-06-22T08:55:36;2.95;;;2.10;;
49784;SDS011;35679;38.732;-121.358;2023-06-22T08:58:25;3.42;;;2.25;;
49784;SDS011;35679;38.732;-121.358;2023-06-22T09:01:15;3.75;;;2.50;;
49784;SDS011;35679;38.732;-121.358;2023-06-22T09:04:04;2.50;;;2.30;;
49784;SDS011;35679;38.732;-121.358;2023-06-22T09:06:56;3.03;;;2.28;;
49784;SDS011;35679;38.732;-121.358;2023-06-22T09:09:45;3.55;;;2.40;;
49784;SDS011;35679;38.732;-121.358;2023-06-22T09:12:35;4.53;;;2.10;;
49784;SDS011;35679;38.732;-121.358;2023-06-22T09:15:26;4.05;;;2.10;;
49784;SDS011;35679;38.732;-121.358;2023-06-22T09:18:15;2.55;;;2.35;;
49784;SDS011;35679;38.732;-121.358;2023-06-22T09:21:05;3.30;;;2.30;;
49784;SDS011;35679;38.732;-121.358;2023-06-22T09:23:58;3.08;;;2.40;;
49784;SDS011;35679;38.732;-121.358;2023-06-22T09:26:48;3.10;;;2.35;;
49784;SDS011;35679;38.732;-121.358;2023-06-22T09:29:37;3.45;;;2.20;;
49784;SDS011;35679;38.732;-121.358;2023-06-22T09:32:26;3.00;;;2.30;;
49784;SDS011;35679;38.732;-121.358;2023-06-22T09:35:16;2.80;;;2.40;;
49784;SDS011;35679;38.732;-121.358;2023-06-22T09:38:05;3.05;;;2.17;;
49784;SDS011;35679;38.732;-121.358;2023-06-22T09:40:55;3.00;;;2.30;;
49784;SDS011;35679;38.732;-121.358;2023-06-22T09:43:44;2.55;;;2.10;;
49784;SDS011;35679;38.732;-121.358;2023-06-22T09:46:33;2.80;;;2.30;;
49784;SDS011;35679;38.732;-121.358;2023-06-22T09:49:23;3.85;;;2.47;;
49784;SDS011;35679;38.732;-121.358;2023-06-22T09:52:32;2.72;;;2.50;;
49784;SDS011;35679;38.732;-121.358;2023-06-22T09:55:35;3.00;;;2.40;;
49784;SDS011;35679;38.732;-121.358;2023-06-22T09:58:24;3.40;;;2.30;;
49784;SDS011;35679;38.732;-121.358;2023-06-22T10:01:14;3.35;;;2.40;;
49784;SDS011;35679;38.732;-121.358;2023-06-22T10:04:03;4.70;;;2.25;;
49784;SDS011;35679;38.732;-121.358;2023-06-22T10:06:53;2.40;;;2.20;;
49784;SDS011;35679;38.732;-121.358;2023-06-22T10:09:42;2.85;;;2.20;;
49784;SDS011;35679;38.732;-121.358;2023-06-22T10:12:32;2.95;;;2.65;;
49784;SDS011;35679;38.732;-121.358;2023-06-22T10:15:21;2.50;;;2.17;;
49784;SDS011;35679;38.732;-121.358;2023-06-22T10:18:10;3.70;;;2.30;;
49784;SDS011;35679;38.732;-121.358;2023-06-22T10:21:00;3.50;;;2.50;;
49784;SDS011;35679;38.732;-121.358;2023-06-22T10:23:49;3.03;;;2.60;;
49784;SDS011;35679;38.732;-121.358;2023-06-22T10:26:39;3.58;;;2.40;;
49784;SDS011;35679;38.732;-121.358;2023-06-22T10:29:28;2.70;;;2.50;;
49784;SDS011;35679;38.732;-121.358;2023-06-22T10:32:18;3.45;;;2.20;;
49784;SDS011;35679;38.732;-121.358;2023-06-22T10:35:07;3.90;;;2.45;;
49784;SDS011;35679;38.732;-121.358;2023-06-22T10:37:59;2.50;;;2.27;;
49784;SDS011;35679;38.732;-121.358;2023-06-22T10:40:48;2.45;;;2.22;;
49784;SDS011;35679;38.732;-121.358;2023-06-22T10:43:38;3.20;;;2.40;;
49784;SDS011;35679;38.732;-121.358;2023-06-22T10:46:27;3.08;;;2.22;;
49784;SDS011;35679;38.732;-121.358;2023-06-22T10:49:16;4.25;;;2.70;;
49784;SDS011;35679;38.732;-121.358;2023-06-22T10:52:06;3.78;;;2.50;;
49784;SDS011;35679;38.732;-121.358;2023-06-22T10:54:56;2.55;;;2.10;;
49784;SDS011;35679;38.732;-121.358;2023-06-22T10:57:46;2.65;;;2.40;;
49784;SDS011;35679;38.732;-121.358;2023-06-22T11:00:38;3.33;;;2.63;;
49784;SDS011;35679;38.732;-121.358;2023-06-22T11:03:28;4.13;;;2.55;;
49784;SDS011;35679;38.732;-121.358;2023-06-22T11:06:18;4.28;;;2.60;;
49784;SDS011;35679;38.732;-121.358;2023-06-22T11:09:07;2.83;;;2.42;;
49784;SDS011;35679;38.732;-121.358;2023-06-22T11:12:03;2.75;;;2.40;;
49784;SDS011;35679;38.732;-121.358;2023-06-22T11:14:53;4.35;;;2.85;;
49784;SDS011;35679;38.732;-121.358;2023-06-22T11:17:46;4.40;;;2.45;;
49784;SDS011;35679;38.732;-121.358;2023-06-22T11:20:36;3.97;;;2.60;;
49784;SDS011;35679;38.732;-121.358;2023-06-22T11:23:27;2.92;;;2.55;;
49784;SDS011;35679;38.732;-121.358;2023-06-22T11:26:16;2.85;;;2.63;;
49784;SDS011;35679;38.732;-121.358;2023-06-22T11:29:06;2.50;;;2.30;;
49784;SDS011;35679;38.732;-121.358;2023-06-22T11:32:10;2.92;;;2.30;;
49784;SDS011;35679;38.732;-121.358;2023-06-22T11:35:01;3.60;;;2.30;;
49784;SDS011;35679;38.732;-121.358;2023-06-22T11:37:50;3.08;;;2.72;;
49784;SDS011;35679;38.732;-121.358;2023-06-22T11:40:42;2.95;;;2.63;;
49784;SDS011;35679;38.732;-121.358;2023-06-22T11:43:32;2.42;;;2.25;;
49784;SDS011;35679;38.732;-121.358;2023-06-22T11:46:22;4.05;;;2.63;;
49784;SDS011;35679;38.732;-121.358;2023-06-22T11:49:12;2.92;;;2.35;;
49784;SDS011;35679;38.732;-121.358;2023-06-22T11:52:01;3.28;;;2.40;;
49784;SDS011;35679;38.732;-121.358;2023-06-22T11:54:50;2.53;;;2.33;;
49784;SDS011;35679;38.732;-121.358;2023-06-22T11:57:52;4.70;;;2.50;;
49784;SDS011;35679;38.732;-121.358;2023-06-22T12:00:47;2.28;;;2.17;;
49784;SDS011;35679;38.732;-121.358;2023-06-22T12:03:39;2.80;;;2.25;;
49784;SDS011;35679;38.732;-121.358;2023-06-22T12:06:28;5.07;;;2.50;;
49784;SDS011;35679;38.732;-121.358;2023-06-22T12:09:18;2.75;;;2.33;;
49784;SDS011;35679;38.732;-121.358;2023-06-22T12:12:07;3.50;;;2.42;;
49784;SDS011;35679;38.732;-121.358;2023-06-22T12:14:57;3.45;;;2.47;;
49784;SDS011;35679;38.732;-121.358;2023-06-22T12:17:51;3.15;;;2.10;;
49784;SDS011;35679;38.732;-121.358;2023-06-22T12:20:41;2.40;;;2.17;;
49784;SDS011;35679;38.732;-121.358;2023-06-22T12:23:30;3.25;;;2.40;;
49784;SDS011;35679;38.732;-121.358;2023-06-22T12:26:20;4.85;;;2.75;;
49784;SDS011;35679;38.732;-121.358;2023-06-22T12:29:10;2.58;;;2.38;;
49784;SDS011;35679;38.732;-121.358;2023-06-22T12:31:59;4.97;;;2.70;;
49784;SDS011;35679;38.732;-121.358;2023-06-22T12:34:49;2.83;;;2.63;;
49784;SDS011;35679;38.732;-121.358;2023-06-22T12:37:39;4.30;;;2.15;;
49784;SDS011;35679;38.732;-121.358;2023-06-22T12:40:29;4.28;;;2.42;;
49784;SDS011;35679;38.732;-121.358;2023-06-22T12:43:19;2.40;;;2.20;;
49784;SDS011;35679;38.732;-121.358;2023-06-22T12:46:11;3.70;;;2.55;;
49784;SDS011;35679;38.732;-121.358;2023-06-22T12:49:00;3.67;;;2.28;;
49784;SDS011;35679;38.732;-121.358;2023-06-22T12:51:53;2.67;;;2.38;;
49784;SDS011;35679;38.732;-121.358;2023-06-22T12:54:42;3.45;;;2.53;;
49784;SDS011;35679;38.732;-121.358;2023-06-22T12:57:41;2.95;;;2.38;;
49784;SDS011;35679;38.732;-121.358;2023-06-22T13:00:31;3.20;;;2.53;;
49784;SDS011;35679;38.732;-121.358;2023-06-22T13:03:20;3.50;;;2.60;;
49784;SDS011;35679;38.732;-121.358;2023-06-22T13:06:09;3.80;;;2.40;;
49784;SDS011;35679;38.732;-121.358;2023-06-22T13:08:59;3.42;;;2.60;;
49784;SDS011;35679;38.732;-121.358;2023-06-22T13:11:51;3.22;;;2.50;;
49784;SDS011;35679;38.732;-121.358;2023-06-22T13:14:41;2.92;;;2.28;;
49784;SDS011;35679;38.732;-121.358;2023-06-22T13:17:31;2.38;;;2.22;;
49784;SDS011;35679;38.732;-121.358;2023-06-22T13:20:21;2.63;;;2.40;;
49784;SDS011;35679;38.732;-121.358;2023-06-22T13:23:11;3.60;;;2.60;;
49784;SDS011;35679;38.732;-121.358;2023-06-22T13:26:00;5.38;;;2.55;;
49784;SDS011;35679;38.732;-121.358;2023-06-22T13:28:49;2.95;;;2.75;;
49784;SDS011;35679;38.732;-121.358;2023-06-22T13:31:38;6.28;;;2.42;;
49784;SDS011;35679;38.732;-121.358;2023-06-22T13:34:28;5.75;;;2.80;;
49784;SDS011;35679;38.732;-121.358;2023-06-22T13:37:17;5.65;;;2.55;;
49784;SDS011;35679;38.732;-121.358;2023-06-22T13:40:07;5.53;;;2.50;;
49784;SDS011;35679;38.732;-121.358;2023-06-22T13:42:57;6.10;;;2.60;;
49784;SDS011;35679;38.732;-121.358;2023-06-22T13:45:46;5.20;;;2.45;;
49784;SDS011;35679;38.732;-121.358;2023-06-22T13:48:35;8.63;;;3.17;;
49784;SDS011;35679;38.732;-121.358;2023-06-22T13:51:25;3.78;;;2.67;;
49784;SDS011;35679;38.732;-121.358;2023-06-22T13:54:14;8.88;;;2.70;;
49784;SDS011;35679;38.732;-121.358;2023-06-22T13:57:16;6.22;;;2.78;;
49784;SDS011;35679;38.732;-121.358;2023-06-22T14:00:06;4.65;;;2.63;;
49784;SDS011;35679;38.732;-121.358;2023-06-22T14:02:59;5.10;;;2.95;;
49784;SDS011;35679;38.732;-121.358;2023-06-22T14:05:49;5.68;;;2.70;;
49784;SDS011;35679;38.732;-121.358;2023-06-22T14:08:38;6.53;;;2.90;;
49784;SDS011;35679;38.732;-121.358;2023-06-22T14:11:28;3.97;;;3.05;;
49784;SDS011;35679;38.732;-121.358;2023-06-22T14:14:18;4.97;;;3.00;;
49784;SDS011;35679;38.732;-121.358;2023-06-22T14:17:07;3.88;;;2.83;;
49784;SDS011;35679;38.732;-121.358;2023-06-22T14:19:56;9.07;;;2.80;;
49784;SDS011;35679;38.732;-121.358;2023-06-22T14:22:46;4.63;;;2.85;;
49784;SDS011;35679;38.732;-121.358;2023-06-22T14:25:35;7.10;;;2.63;;
49784;SDS011;35679;38.732;-121.358;2023-06-22T14:28:25;4.97;;;2.60;;
49784;SDS011;35679;38.732;-121.358;2023-06-22T14:31:14;4.40;;;2.80;;
49784;SDS011;35679;38.732;-121.358;2023-06-22T14:34:04;3.75;;;2.70;;
49784;SDS011;35679;38.732;-121.358;2023-06-22T14:36:54;3.47;;;2.78;;
49784;SDS011;35679;38.732;-121.358;2023-06-22T14:39:43;9.48;;;3.10;;
49784;SDS011;35679;38.732;-121.358;2023-06-22T14:42:33;4.30;;;2.88;;
49784;SDS011;35679;38.732;-121.358;2023-06-22T14:45:23;8.77;;;2.50;;
49784;SDS011;35679;38.732;-121.358;2023-06-22T14:48:12;7.10;;;2.50;;
49784;SDS011;35679;38.732;-121.358;2023-06-22T14:51:02;4.63;;;2.80;;
49784;SDS011;35679;38.732;-121.358;2023-06-22T14:53:51;4.82;;;2.78;;
49784;SDS011;35679;38.732;-121.358;2023-06-22T14:56:40;8.32;;;3.17;;
49784;SDS011;35679;38.732;-121.358;2023-06-22T14:59:31;3.33;;;2.80;;
49784;SDS011;35679;38.732;-121.358;2023-06-22T15:02:20;8.73;;;3.55;;
49784;SDS011;35679;38.732;-121.358;2023-06-22T15:05:10;4.97;;;3.17;;
49784;SDS011;35679;38.732;-121.358;2023-06-22T15:08:00;4.10;;;2.95;;
49784;SDS011;35679;38.732;-121.358;2023-06-22T15:10:50;3.10;;;2.80;;
49784;SDS011;35679;38.732;-121.358;2023-06-22T15:13:40;4.38;;;2.58;;
49784;SDS011;35679;38.732;-121.358;2023-06-22T15:16:30;7.22;;;2.97;;
49784;SDS011;35679;38.732;-121.358;2023-06-22T15:19:19;3.92;;;2.78;;
49784;SDS011;35679;38.732;-121.358;2023-06-22T15:22:09;5.43;;;3.53;;
49784;SDS011;35679;38.732;-121.358;2023-06-22T15:24:58;4.80;;;2.90;;
49784;SDS011;35679;38.732;-121.358;2023-06-22T15:27:48;4.40;;;2.70;;
49784;SDS011;35679;38.732;-121.358;2023-06-22T15:30:37;3.30;;;3.00;;
49784;SDS011;35679;38.732;-121.358;2023-06-22T15:33:29;6.47;;;3.17;;
49784;SDS011;35679;38.732;-121.358;2023-06-22T15:36:20;4.47;;;2.63;;
49784;SDS011;35679;38.732;-121.358;2023-06-22T15:39:10;4.82;;;2.97;;
49784;SDS011;35679;38.732;-121.358;2023-06-22T15:41:59;7.68;;;2.95;;
49784;SDS011;35679;38.732;-121.358;2023-06-22T15:44:49;7.13;;;3.45;;
49784;SDS011;35679;38.732;-121.358;2023-06-22T15:47:38;5.88;;;3.05;;
49784;SDS011;35679;38.732;-121.358;2023-06-22T15:50:28;6.35;;;3.00;;
49784;SDS011;35679;38.732;-121.358;2023-06-22T15:53:18;5.57;;;2.90;;
49784;SDS011;35679;38.732;-121.358;2023-06-22T15:56:07;3.00;;;2.80;;
49784;SDS011;35679;38.732;-121.358;2023-06-22T15:58:59;7.53;;;3.05;;
49784;SDS011;35679;38.732;-121.358;2023-06-22T16:01:49;5.90;;;3.10;;
49784;SDS011;35679;38.732;-121.358;2023-06-22T16:04:39;5.10;;;3.00;;
49784;SDS011;35679;38.732;-121.358;2023-06-22T16:07:28;3.25;;;2.80;;
49784;SDS011;35679;38.732;-121.358;2023-06-22T16:10:17;5.63;;;3.00;;
49784;SDS011;35679;38.732;-121.358;2023-06-22T16:13:08;3.65;;;2.70;;
49784;SDS011;35679;38.732;-121.358;2023-06-22T16:15:57;4.82;;;2.92;;
49784;SDS011;35679;38.732;-121.358;2023-06-22T16:18:47;5.28;;;3.00;;
49784;SDS011;35679;38.732;-121.358;2023-06-22T16:21:37;8.55;;;3.38;;
49784;SDS011;35679;38.732;-121.358;2023-06-22T16:24:29;5.47;;;3.10;;
49784;SDS011;35679;38.732;-121.358;2023-06-22T16:27:18;3.85;;;2.83;;
49784;SDS011;35679;38.732;-121.358;2023-06-22T16:30:08;5.78;;;3.15;;